A- A+ FrançaisEnglishEspañol中国

Services sur Internet Soldes sur Internet Des idées de cadeaux Météo Météo aéro

La météo à : Autours de vous Marseille Aix-Les MillesTarbes-Lourdes-PyrénéesBiscarrosse-Parentis

manche à air

La météo aéronautique pour les pilotes, la préparation du vol avec les METAR (METeorological Aerodrome Report, message d'observation des conditions météorologiques pour l'aviation) et Les TAF (Terminal Aerodrome Forecast : message de prévision à court terme des conditions météorologiques pour l'aviation). Et les autres ressources comme les VAC (Visual Approch Chart) et les NOTAM (Notice To Airman) pour préprer les vols.

Aéroport Scampton (Royaume-Uni) / OACI EGXP/ IATA SQZ

L'altitude de l'aéroport Scampton est de 62 m = 203 ft. Il est situé à proximité de Scampton (Royaume-Uni). La météo générale à 5 jours est disponible pour Sudbrooke situé à 8.1 km.

METAR de l'aéroport Scampton - EGXP

EGXP 290950Z AUTO 23012KT 9999 // BKN010/// 17/15 Q0990

Décodage du METAR de l'aéroport Scampton (GB)

METAR émis par EGXP le dimanche 29 septembre 2019 à 09:50 heure TU. C'est un METAR généré automatiquement. Attention ce METAR est obsolète car il a été émis il y a 3 heure et 21 minutes.

La visibilité est de supérieure à 10 km = supérieure à 6.2 sm.

La température est de 17°C = 63 °F et le point rosée est de 15°C = 59 °F . Ce qui correspond à 88% d'humidité relative.

Le QNH est de 990 hPa = 29.23 inHg

Vent de 12 kt = 22 km/h, orienté à 230°.

Nuages : Couverture nuageuse fragmentée à 1000 ft = 300 mètres.

TAF de l'aéroport Scampton - EGXP

EGXP 231028Z 2312/2317 21012KT 9999 SCT035

EGXP 231028Z 2312/2317 21012KT 9999 nuages épars à 035

Aéroport à proximité de Scampton

Météo générale à 5 jours à Sudbrooke (8.1 km)Aéroport Sturgate (12 km)Aéroport Wickenby (13 km)Aéroport Waddington (16 km)Aéroport Retford Gamston (27 km)Aéroport Cranwell (31 km)Aéroport Humberside (32 km)

Vue aérienne de l'aéroport Scampton

NOTAM de l'aéroport Scampton

Les NOTAM sont fournis sans aucune garantie de leur actualité. Le pilote est le seul responsable de la vérification de sa validité avant de l'utiliser opérationnellement pour préparer un vol ou l'utiliser lors de sa navigation.

Pas de NOTAM

Sources des données